sensor_id;sensor_type;location;lat;lon;timestamp;P1;durP1;ratioP1;P2;durP2;ratioP2
75054;SDS011;63636;44.746;10.488;2023-04-03T00:01:19;3.70;;;1.70;;
75054;SDS011;63636;44.746;10.488;2023-04-03T00:03:45;4.65;;;1.60;;
75054;SDS011;63636;44.746;10.488;2023-04-03T00:06:11;3.15;;;1.40;;
75054;SDS011;63636;44.746;10.488;2023-04-03T00:08:37;2.50;;;1.45;;
75054;SDS011;63636;44.746;10.488;2023-04-03T00:11:03;2.83;;;1.50;;
75054;SDS011;63636;44.746;10.488;2023-04-03T00:13:29;3.30;;;1.48;;
75054;SDS011;63636;44.746;10.488;2023-04-03T00:15:54;2.08;;;1.40;;
75054;SDS011;63636;44.746;10.488;2023-04-03T00:18:20;2.50;;;1.50;;
75054;SDS011;63636;44.746;10.488;2023-04-03T00:20:46;2.95;;;1.50;;
75054;SDS011;63636;44.746;10.488;2023-04-03T00:23:11;3.15;;;1.55;;
75054;SDS011;63636;44.746;10.488;2023-04-03T00:25:37;2.50;;;1.48;;
75054;SDS011;63636;44.746;10.488;2023-04-03T00:28:03;3.10;;;1.50;;
75054;SDS011;63636;44.746;10.488;2023-04-03T00:30:28;2.75;;;1.52;;
75054;SDS011;63636;44.746;10.488;2023-04-03T00:32:54;5.10;;;2.88;;
75054;SDS011;63636;44.746;10.488;2023-04-03T00:35:20;3.58;;;1.83;;
75054;SDS011;63636;44.746;10.488;2023-04-03T00:37:46;3.58;;;1.70;;
75054;SDS011;63636;44.746;10.488;2023-04-03T00:40:12;3.42;;;1.70;;
75054;SDS011;63636;44.746;10.488;2023-04-03T00:42:40;3.78;;;1.63;;
75054;SDS011;63636;44.746;10.488;2023-04-03T00:47:31;2.58;;;1.70;;
75054;SDS011;63636;44.746;10.488;2023-04-03T00:49:57;2.60;;;1.65;;
75054;SDS011;63636;44.746;10.488;2023-04-03T00:52:25;3.38;;;1.65;;
75054;SDS011;63636;44.746;10.488;2023-04-03T00:54:54;3.28;;;1.83;;
75054;SDS011;63636;44.746;10.488;2023-04-03T00:57:20;2.65;;;1.50;;
75054;SDS011;63636;44.746;10.488;2023-04-03T00:59:47;3.03;;;1.55;;
75054;SDS011;63636;44.746;10.488;2023-04-03T01:02:14;4.72;;;1.70;;
75054;SDS011;63636;44.746;10.488;2023-04-03T01:04:42;3.75;;;1.63;;
75054;SDS011;63636;44.746;10.488;2023-04-03T01:07:09;2.65;;;1.50;;
75054;SDS011;63636;44.746;10.488;2023-04-03T01:09:35;4.75;;;1.80;;
75054;SDS011;63636;44.746;10.488;2023-04-03T01:12:21;3.10;;;1.52;;
75054;SDS011;63636;44.746;10.488;2023-04-03T01:14:51;3.55;;;1.67;;
75054;SDS011;63636;44.746;10.488;2023-04-03T01:25:12;2.10;;;1.50;;
75054;SDS011;63636;44.746;10.488;2023-04-03T01:27:38;4.32;;;1.80;;
75054;SDS011;63636;44.746;10.488;2023-04-03T01:30:04;3.45;;;1.80;;
75054;SDS011;63636;44.746;10.488;2023-04-03T01:32:31;4.03;;;1.50;;
75054;SDS011;63636;44.746;10.488;2023-04-03T01:34:57;2.88;;;1.70;;
75054;SDS011;63636;44.746;10.488;2023-04-03T01:37:22;2.38;;;1.67;;
75054;SDS011;63636;44.746;10.488;2023-04-03T01:39:48;2.60;;;1.60;;
75054;SDS011;63636;44.746;10.488;2023-04-03T01:42:13;3.88;;;1.88;;
75054;SDS011;63636;44.746;10.488;2023-04-03T01:44:42;3.17;;;1.67;;
75054;SDS011;63636;44.746;10.488;2023-04-03T01:47:08;2.97;;;1.88;;
75054;SDS011;63636;44.746;10.488;2023-04-03T01:49:34;3.00;;;1.80;;
75054;SDS011;63636;44.746;10.488;2023-04-03T01:52:00;3.85;;;1.80;;
75054;SDS011;63636;44.746;10.488;2023-04-03T01:54:25;2.70;;;1.60;;
75054;SDS011;63636;44.746;10.488;2023-04-03T01:56:51;2.63;;;1.77;;
75054;SDS011;63636;44.746;10.488;2023-04-03T01:59:18;3.88;;;1.70;;
75054;SDS011;63636;44.746;10.488;2023-04-03T02:01:44;3.03;;;1.67;;
75054;SDS011;63636;44.746;10.488;2023-04-03T02:04:11;3.42;;;1.60;;
75054;SDS011;63636;44.746;10.488;2023-04-03T02:06:36;3.45;;;1.70;;
75054;SDS011;63636;44.746;10.488;2023-04-03T02:09:02;2.60;;;1.70;;
75054;SDS011;63636;44.746;10.488;2023-04-03T02:11:29;3.50;;;1.80;;
75054;SDS011;63636;44.746;10.488;2023-04-03T02:13:55;2.70;;;1.50;;
75054;SDS011;63636;44.746;10.488;2023-04-03T02:16:20;2.67;;;1.70;;
75054;SDS011;63636;44.746;10.488;2023-04-03T02:18:48;3.53;;;1.90;;
75054;SDS011;63636;44.746;10.488;2023-04-03T02:21:14;3.55;;;1.70;;
75054;SDS011;63636;44.746;10.488;2023-04-03T02:23:39;2.92;;;1.75;;
75054;SDS011;63636;44.746;10.488;2023-04-03T02:26:06;3.85;;;2.00;;
75054;SDS011;63636;44.746;10.488;2023-04-03T02:28:33;2.92;;;1.77;;
75054;SDS011;63636;44.746;10.488;2023-04-03T02:30:58;3.78;;;1.73;;
75054;SDS011;63636;44.746;10.488;2023-04-03T02:36:05;2.47;;;1.65;;
75054;SDS011;63636;44.746;10.488;2023-04-03T02:38:31;2.67;;;1.73;;
75054;SDS011;63636;44.746;10.488;2023-04-03T02:41:00;3.30;;;1.90;;
75054;SDS011;63636;44.746;10.488;2023-04-03T02:43:26;4.55;;;2.03;;
75054;SDS011;63636;44.746;10.488;2023-04-03T02:45:53;3.15;;;1.98;;
75054;SDS011;63636;44.746;10.488;2023-04-03T02:48:18;3.28;;;1.77;;
75054;SDS011;63636;44.746;10.488;2023-04-03T02:50:44;3.08;;;1.75;;
75054;SDS011;63636;44.746;10.488;2023-04-03T02:53:10;3.20;;;1.80;;
75054;SDS011;63636;44.746;10.488;2023-04-03T02:55:36;2.78;;;1.75;;
75054;SDS011;63636;44.746;10.488;2023-04-03T02:58:01;4.15;;;1.80;;
75054;SDS011;63636;44.746;10.488;2023-04-03T03:00:27;4.53;;;1.90;;
75054;SDS011;63636;44.746;10.488;2023-04-03T03:02:53;4.20;;;1.95;;
75054;SDS011;63636;44.746;10.488;2023-04-03T03:05:18;3.40;;;1.70;;
75054;SDS011;63636;44.746;10.488;2023-04-03T03:07:44;4.32;;;2.00;;
75054;SDS011;63636;44.746;10.488;2023-04-03T03:10:10;4.70;;;1.90;;
75054;SDS011;63636;44.746;10.488;2023-04-03T03:12:35;4.10;;;2.10;;
75054;SDS011;63636;44.746;10.488;2023-04-03T03:15:01;3.38;;;1.90;;
75054;SDS011;63636;44.746;10.488;2023-04-03T03:17:27;3.63;;;1.83;;
75054;SDS011;63636;44.746;10.488;2023-04-03T03:19:52;4.18;;;2.00;;
75054;SDS011;63636;44.746;10.488;2023-04-03T03:22:18;3.42;;;1.80;;
75054;SDS011;63636;44.746;10.488;2023-04-03T03:24:43;4.07;;;1.80;;
75054;SDS011;63636;44.746;10.488;2023-04-03T03:27:09;4.60;;;1.90;;
75054;SDS011;63636;44.746;10.488;2023-04-03T03:29:35;5.22;;;2.25;;
75054;SDS011;63636;44.746;10.488;2023-04-03T03:32:02;3.75;;;1.73;;
75054;SDS011;63636;44.746;10.488;2023-04-03T03:34:28;2.50;;;1.73;;
75054;SDS011;63636;44.746;10.488;2023-04-03T03:36:53;4.50;;;2.03;;
75054;SDS011;63636;44.746;10.488;2023-04-03T03:39:19;3.83;;;2.00;;
75054;SDS011;63636;44.746;10.488;2023-04-03T03:41:44;3.20;;;1.80;;
75054;SDS011;63636;44.746;10.488;2023-04-03T03:44:10;3.60;;;1.98;;
75054;SDS011;63636;44.746;10.488;2023-04-03T03:46:36;4.20;;;2.05;;
75054;SDS011;63636;44.746;10.488;2023-04-03T03:49:02;4.93;;;2.22;;
75054;SDS011;63636;44.746;10.488;2023-04-03T03:51:28;4.35;;;2.03;;
75054;SDS011;63636;44.746;10.488;2023-04-03T03:53:54;5.35;;;2.10;;
75054;SDS011;63636;44.746;10.488;2023-04-03T03:56:19;4.07;;;2.00;;
75054;SDS011;63636;44.746;10.488;2023-04-03T03:58:45;3.58;;;2.00;;
75054;SDS011;63636;44.746;10.488;2023-04-03T04:01:12;4.57;;;2.10;;
75054;SDS011;63636;44.746;10.488;2023-04-03T04:03:42;4.05;;;2.10;;
75054;SDS011;63636;44.746;10.488;2023-04-03T04:06:11;3.45;;;2.00;;
75054;SDS011;63636;44.746;10.488;2023-04-03T04:08:37;3.15;;;1.90;;
75054;SDS011;63636;44.746;10.488;2023-04-03T04:11:05;4.20;;;2.20;;
75054;SDS011;63636;44.746;10.488;2023-04-03T04:13:31;4.57;;;2.10;;
75054;SDS011;63636;44.746;10.488;2023-04-03T04:15:57;4.25;;;2.03;;
75054;SDS011;63636;44.746;10.488;2023-04-03T04:18:22;5.15;;;2.35;;
75054;SDS011;63636;44.746;10.488;2023-04-03T04:20:49;4.32;;;2.17;;
75054;SDS011;63636;44.746;10.488;2023-04-03T04:23:17;3.78;;;2.10;;
75054;SDS011;63636;44.746;10.488;2023-04-03T04:25:44;4.45;;;1.90;;
75054;SDS011;63636;44.746;10.488;2023-04-03T04:28:10;5.05;;;2.30;;
75054;SDS011;63636;44.746;10.488;2023-04-03T04:30:36;4.13;;;2.15;;
75054;SDS011;63636;44.746;10.488;2023-04-03T04:33:02;4.38;;;2.20;;
75054;SDS011;63636;44.746;10.488;2023-04-03T04:35:29;3.95;;;2.17;;
75054;SDS011;63636;44.746;10.488;2023-04-03T04:37:55;4.28;;;2.30;;
75054;SDS011;63636;44.746;10.488;2023-04-03T04:40:20;4.85;;;2.30;;
75054;SDS011;63636;44.746;10.488;2023-04-03T04:42:47;4.57;;;2.20;;
75054;SDS011;63636;44.746;10.488;2023-04-03T04:45:13;4.70;;;2.30;;
75054;SDS011;63636;44.746;10.488;2023-04-03T04:47:41;4.22;;;2.40;;
75054;SDS011;63636;44.746;10.488;2023-04-03T04:50:07;5.63;;;2.45;;
75054;SDS011;63636;44.746;10.488;2023-04-03T04:52:32;4.72;;;2.38;;
75054;SDS011;63636;44.746;10.488;2023-04-03T04:54:58;4.57;;;2.40;;
75054;SDS011;63636;44.746;10.488;2023-04-03T04:57:25;4.18;;;2.30;;
75054;SDS011;63636;44.746;10.488;2023-04-03T04:59:51;5.25;;;2.80;;
75054;SDS011;63636;44.746;10.488;2023-04-03T05:02:16;5.45;;;2.88;;
75054;SDS011;63636;44.746;10.488;2023-04-03T05:04:43;4.68;;;2.53;;
75054;SDS011;63636;44.746;10.488;2023-04-03T05:07:15;6.17;;;2.63;;
75054;SDS011;63636;44.746;10.488;2023-04-03T05:09:41;4.90;;;2.60;;
75054;SDS011;63636;44.746;10.488;2023-04-03T05:12:08;5.70;;;2.40;;
75054;SDS011;63636;44.746;10.488;2023-04-03T05:14:40;5.27;;;2.50;;
75054;SDS011;63636;44.746;10.488;2023-04-03T05:17:08;5.53;;;2.58;;
75054;SDS011;63636;44.746;10.488;2023-04-03T05:19:37;5.30;;;2.25;;
75054;SDS011;63636;44.746;10.488;2023-04-03T05:22:04;5.85;;;2.80;;
75054;SDS011;63636;44.746;10.488;2023-04-03T05:24:30;4.40;;;2.67;;
75054;SDS011;63636;44.746;10.488;2023-04-03T05:26:56;5.65;;;2.60;;
75054;SDS011;63636;44.746;10.488;2023-04-03T05:29:22;5.68;;;2.70;;
75054;SDS011;63636;44.746;10.488;2023-04-03T05:31:49;8.15;;;2.53;;
75054;SDS011;63636;44.746;10.488;2023-04-03T05:34:15;4.80;;;2.70;;
75054;SDS011;63636;44.746;10.488;2023-04-03T05:36:42;5.20;;;2.70;;
75054;SDS011;63636;44.746;10.488;2023-04-03T05:39:09;4.68;;;2.38;;
75054;SDS011;63636;44.746;10.488;2023-04-03T05:41:38;5.45;;;3.00;;
75054;SDS011;63636;44.746;10.488;2023-04-03T05:44:04;8.43;;;2.90;;
75054;SDS011;63636;44.746;10.488;2023-04-03T05:46:29;5.18;;;2.60;;
75054;SDS011;63636;44.746;10.488;2023-04-03T05:48:59;6.50;;;3.08;;
75054;SDS011;63636;44.746;10.488;2023-04-03T05:51:30;5.82;;;2.95;;
75054;SDS011;63636;44.746;10.488;2023-04-03T05:56:36;6.10;;;2.90;;
75054;SDS011;63636;44.746;10.488;2023-04-03T05:59:02;4.95;;;2.83;;
75054;SDS011;63636;44.746;10.488;2023-04-03T06:01:28;6.57;;;2.97;;
75054;SDS011;63636;44.746;10.488;2023-04-03T06:03:57;6.68;;;2.85;;
75054;SDS011;63636;44.746;10.488;2023-04-03T06:06:24;6.68;;;3.08;;
75054;SDS011;63636;44.746;10.488;2023-04-03T06:08:50;5.13;;;2.47;;
75054;SDS011;63636;44.746;10.488;2023-04-03T06:11:15;6.00;;;3.03;;
75054;SDS011;63636;44.746;10.488;2023-04-03T06:13:41;5.90;;;3.05;;
75054;SDS011;63636;44.746;10.488;2023-04-03T06:16:08;5.65;;;3.08;;
75054;SDS011;63636;44.746;10.488;2023-04-03T06:18:34;5.43;;;2.83;;
75054;SDS011;63636;44.746;10.488;2023-04-03T06:21:01;5.95;;;2.92;;
75054;SDS011;63636;44.746;10.488;2023-04-03T06:23:28;5.13;;;3.03;;
75054;SDS011;63636;44.746;10.488;2023-04-03T06:25:53;6.35;;;3.15;;
75054;SDS011;63636;44.746;10.488;2023-04-03T06:28:19;5.38;;;2.85;;
75054;SDS011;63636;44.746;10.488;2023-04-03T06:30:45;5.55;;;2.92;;
75054;SDS011;63636;44.746;10.488;2023-04-03T06:33:11;7.32;;;3.78;;
75054;SDS011;63636;44.746;10.488;2023-04-03T06:35:36;6.65;;;3.58;;
75054;SDS011;63636;44.746;10.488;2023-04-03T06:38:03;6.65;;;3.70;;
75054;SDS011;63636;44.746;10.488;2023-04-03T06:40:34;8.38;;;4.00;;
75054;SDS011;63636;44.746;10.488;2023-04-03T06:43:00;7.47;;;3.95;;
75054;SDS011;63636;44.746;10.488;2023-04-03T06:45:26;7.72;;;3.88;;
75054;SDS011;63636;44.746;10.488;2023-04-03T06:47:53;6.93;;;3.70;;
75054;SDS011;63636;44.746;10.488;2023-04-03T06:50:19;7.20;;;3.90;;
75054;SDS011;63636;44.746;10.488;2023-04-03T06:52:44;7.45;;;3.75;;
75054;SDS011;63636;44.746;10.488;2023-04-03T06:55:10;7.00;;;3.80;;
75054;SDS011;63636;44.746;10.488;2023-04-03T06:57:36;10.30;;;4.50;;
75054;SDS011;63636;44.746;10.488;2023-04-03T07:00:02;9.15;;;4.45;;
75054;SDS011;63636;44.746;10.488;2023-04-03T07:02:29;9.35;;;4.80;;
75054;SDS011;63636;44.746;10.488;2023-04-03T07:04:54;8.23;;;4.68;;
75054;SDS011;63636;44.746;10.488;2023-04-03T07:07:20;8.63;;;4.95;;
75054;SDS011;63636;44.746;10.488;2023-04-03T07:09:46;9.52;;;5.47;;
75054;SDS011;63636;44.746;10.488;2023-04-03T07:12:13;10.95;;;5.35;;
75054;SDS011;63636;44.746;10.488;2023-04-03T07:14:39;9.45;;;5.68;;
75054;SDS011;63636;44.746;10.488;2023-04-03T07:17:04;10.43;;;6.20;;
75054;SDS011;63636;44.746;10.488;2023-04-03T07:19:30;10.82;;;6.38;;
75054;SDS011;63636;44.746;10.488;2023-04-03T07:21:56;12.25;;;6.15;;
75054;SDS011;63636;44.746;10.488;2023-04-03T07:24:22;10.48;;;6.70;;
75054;SDS011;63636;44.746;10.488;2023-04-03T07:26:51;10.82;;;6.65;;
75054;SDS011;63636;44.746;10.488;2023-04-03T07:29:17;11.68;;;6.82;;
75054;SDS011;63636;44.746;10.488;2023-04-03T07:31:43;11.10;;;6.88;;
75054;SDS011;63636;44.746;10.488;2023-04-03T07:34:10;11.52;;;6.28;;
75054;SDS011;63636;44.746;10.488;2023-04-03T07:36:36;11.43;;;6.95;;
75054;SDS011;63636;44.746;10.488;2023-04-03T07:39:01;11.05;;;7.00;;
75054;SDS011;63636;44.746;10.488;2023-04-03T07:41:27;11.38;;;7.00;;
75054;SDS011;63636;44.746;10.488;2023-04-03T07:43:54;10.70;;;6.75;;
75054;SDS011;63636;44.746;10.488;2023-04-03T07:46:20;11.35;;;7.10;;
75054;SDS011;63636;44.746;10.488;2023-04-03T07:48:45;13.07;;;6.97;;
75054;SDS011;63636;44.746;10.488;2023-04-03T07:51:11;11.57;;;7.28;;
75054;SDS011;63636;44.746;10.488;2023-04-03T07:53:38;10.52;;;6.72;;
75054;SDS011;63636;44.746;10.488;2023-04-03T07:56:03;12.15;;;7.45;;
75054;SDS011;63636;44.746;10.488;2023-04-03T07:58:29;11.15;;;6.72;;
75054;SDS011;63636;44.746;10.488;2023-04-03T08:00:55;11.52;;;7.00;;
75054;SDS011;63636;44.746;10.488;2023-04-03T08:03:21;11.15;;;7.03;;
75054;SDS011;63636;44.746;10.488;2023-04-03T08:05:48;11.45;;;7.22;;
75054;SDS011;63636;44.746;10.488;2023-04-03T08:08:14;10.65;;;6.80;;
75054;SDS011;63636;44.746;10.488;2023-04-03T08:10:40;12.88;;;6.82;;
75054;SDS011;63636;44.746;10.488;2023-04-03T08:13:06;12.02;;;6.97;;
75054;SDS011;63636;44.746;10.488;2023-04-03T08:15:32;10.70;;;7.30;;
75054;SDS011;63636;44.746;10.488;2023-04-03T08:17:58;11.73;;;7.40;;
75054;SDS011;63636;44.746;10.488;2023-04-03T08:20:24;12.80;;;7.35;;
75054;SDS011;63636;44.746;10.488;2023-04-03T08:22:50;12.10;;;6.90;;
75054;SDS011;63636;44.746;10.488;2023-04-03T08:25:15;11.55;;;6.90;;
75054;SDS011;63636;44.746;10.488;2023-04-03T08:27:42;11.30;;;6.47;;
75054;SDS011;63636;44.746;10.488;2023-04-03T08:30:08;9.88;;;7.20;;
75054;SDS011;63636;44.746;10.488;2023-04-03T08:32:34;10.25;;;7.10;;
75054;SDS011;63636;44.746;10.488;2023-04-03T08:35:01;10.13;;;6.90;;
75054;SDS011;63636;44.746;10.488;2023-04-03T08:37:26;9.88;;;6.85;;
75054;SDS011;63636;44.746;10.488;2023-04-03T08:39:52;11.20;;;7.13;;
75054;SDS011;63636;44.746;10.488;2023-04-03T08:47:30;11.85;;;7.57;;
75054;SDS011;63636;44.746;10.488;2023-04-03T08:52:36;11.52;;;7.57;;
75054;SDS011;63636;44.746;10.488;2023-04-03T08:55:06;10.23;;;7.20;;
75054;SDS011;63636;44.746;10.488;2023-04-03T08:57:33;12.13;;;7.70;;
75054;SDS011;63636;44.746;10.488;2023-04-03T09:00:01;12.45;;;8.35;;
75054;SDS011;63636;44.746;10.488;2023-04-03T09:04:54;11.98;;;7.05;;
75054;SDS011;63636;44.746;10.488;2023-04-03T09:07:31;10.23;;;7.45;;
75054;SDS011;63636;44.746;10.488;2023-04-03T09:09:59;11.98;;;7.82;;
75054;SDS011;63636;44.746;10.488;2023-04-03T09:12:32;12.50;;;8.15;;
75054;SDS011;63636;44.746;10.488;2023-04-03T09:20:07;11.10;;;6.78;;
75054;SDS011;63636;44.746;10.488;2023-04-03T09:25:16;9.13;;;6.25;;
75054;SDS011;63636;44.746;10.488;2023-04-03T09:27:42;9.43;;;6.10;;
75054;SDS011;63636;44.746;10.488;2023-04-03T09:30:12;10.18;;;6.32;;
75054;SDS011;63636;44.746;10.488;2023-04-03T09:32:38;9.80;;;6.18;;
75054;SDS011;63636;44.746;10.488;2023-04-03T09:35:06;10.35;;;6.88;;
75054;SDS011;63636;44.746;10.488;2023-04-03T09:40:02;8.73;;;4.70;;
75054;SDS011;63636;44.746;10.488;2023-04-03T09:42:29;5.30;;;3.42;;
75054;SDS011;63636;44.746;10.488;2023-04-03T09:45:02;6.47;;;4.00;;
75054;SDS011;63636;44.746;10.488;2023-04-03T09:47:33;6.63;;;4.00;;
75054;SDS011;63636;44.746;10.488;2023-04-03T09:52:34;10.02;;;4.65;;
75054;SDS011;63636;44.746;10.488;2023-04-03T09:55:07;6.22;;;3.40;;
75054;SDS011;63636;44.746;10.488;2023-04-03T09:57:33;6.80;;;3.35;;
75054;SDS011;63636;44.746;10.488;2023-04-03T09:59:59;8.10;;;4.35;;
75054;SDS011;63636;44.746;10.488;2023-04-03T10:04:54;6.90;;;3.88;;
75054;SDS011;63636;44.746;10.488;2023-04-03T10:07:28;6.53;;;3.78;;
75054;SDS011;63636;44.746;10.488;2023-04-03T10:09:55;9.35;;;3.90;;
75054;SDS011;63636;44.746;10.488;2023-04-03T10:12:21;7.30;;;3.70;;
75054;SDS011;63636;44.746;10.488;2023-04-03T10:14:55;7.72;;;4.00;;
75054;SDS011;63636;44.746;10.488;2023-04-03T10:27:31;7.82;;;3.67;;
75054;SDS011;63636;44.746;10.488;2023-04-03T10:30:04;6.18;;;3.88;;
75054;SDS011;63636;44.746;10.488;2023-04-03T10:32:45;5.57;;;3.33;;
75054;SDS011;63636;44.746;10.488;2023-04-03T10:38:08;6.38;;;3.42;;
75054;SDS011;63636;44.746;10.488;2023-04-03T10:40:43;5.82;;;2.90;;
75054;SDS011;63636;44.746;10.488;2023-04-03T10:58:34;4.18;;;2.13;;
75054;SDS011;63636;44.746;10.488;2023-04-03T11:01:03;6.03;;;2.47;;
75054;SDS011;63636;44.746;10.488;2023-04-03T11:03:32;5.35;;;2.30;;
75054;SDS011;63636;44.746;10.488;2023-04-03T11:06:00;3.38;;;1.60;;
75054;SDS011;63636;44.746;10.488;2023-04-03T11:08:27;2.40;;;1.70;;
75054;SDS011;63636;44.746;10.488;2023-04-03T11:10:55;4.70;;;1.90;;
75054;SDS011;63636;44.746;10.488;2023-04-03T11:15:59;2.20;;;1.50;;
75054;SDS011;63636;44.746;10.488;2023-04-03T11:18:27;4.88;;;1.25;;
75054;SDS011;63636;44.746;10.488;2023-04-03T11:20:58;3.75;;;1.67;;
75054;SDS011;63636;44.746;10.488;2023-04-03T11:23:26;2.83;;;1.70;;
75054;SDS011;63636;44.746;10.488;2023-04-03T11:25:54;3.90;;;1.73;;
75054;SDS011;63636;44.746;10.488;2023-04-03T11:28:20;2.47;;;1.55;;
75054;SDS011;63636;44.746;10.488;2023-04-03T11:30:47;2.42;;;1.52;;
75054;SDS011;63636;44.746;10.488;2023-04-03T11:35:47;2.90;;;1.85;;
75054;SDS011;63636;44.746;10.488;2023-04-03T11:38:26;1.98;;;1.20;;
75054;SDS011;63636;44.746;10.488;2023-04-03T11:40:54;1.95;;;1.00;;
75054;SDS011;63636;44.746;10.488;2023-04-03T11:43:26;1.85;;;0.90;;
75054;SDS011;63636;44.746;10.488;2023-04-03T11:50:45;2.17;;;1.27;;
75054;SDS011;63636;44.746;10.488;2023-04-03T11:58:18;4.20;;;1.40;;
75054;SDS011;63636;44.746;10.488;2023-04-03T12:05:48;2.40;;;0.93;;
75054;SDS011;63636;44.746;10.488;2023-04-03T12:08:26;2.83;;;1.15;;
75054;SDS011;63636;44.746;10.488;2023-04-03T12:11:35;2.92;;;1.10;;
75054;SDS011;63636;44.746;10.488;2023-04-03T12:21:20;2.92;;;1.20;;
75054;SDS011;63636;44.746;10.488;2023-04-03T12:23:57;2.65;;;1.08;;
75054;SDS011;63636;44.746;10.488;2023-04-03T12:26:24;3.00;;;1.35;;
75054;SDS011;63636;44.746;10.488;2023-04-03T12:28:52;3.50;;;1.27;;
75054;SDS011;63636;44.746;10.488;2023-04-03T12:31:18;2.47;;;1.05;;
75054;SDS011;63636;44.746;10.488;2023-04-03T12:33:52;3.83;;;1.42;;
75054;SDS011;63636;44.746;10.488;2023-04-03T12:36:26;2.88;;;1.20;;
75054;SDS011;63636;44.746;10.488;2023-04-03T12:39:17;3.40;;;1.40;;
75054;SDS011;63636;44.746;10.488;2023-04-03T12:44:35;4.97;;;1.42;;
75054;SDS011;63636;44.746;10.488;2023-04-03T12:47:08;2.95;;;1.30;;
75054;SDS011;63636;44.746;10.488;2023-04-03T12:49:42;4.03;;;2.28;;
75054;SDS011;63636;44.746;10.488;2023-04-03T12:52:19;5.55;;;2.10;;
75054;SDS011;63636;44.746;10.488;2023-04-03T12:54:48;5.32;;;2.40;;
75054;SDS011;63636;44.746;10.488;2023-04-03T12:59:40;5.10;;;2.00;;
75054;SDS011;63636;44.746;10.488;2023-04-03T13:02:40;3.97;;;2.10;;
75054;SDS011;63636;44.746;10.488;2023-04-03T13:05:07;4.50;;;2.45;;
75054;SDS011;63636;44.746;10.488;2023-04-03T13:07:33;3.75;;;2.30;;
75054;SDS011;63636;44.746;10.488;2023-04-03T13:12:33;5.90;;;2.80;;
75054;SDS011;63636;44.746;10.488;2023-04-03T13:15:00;8.18;;;2.90;;
75054;SDS011;63636;44.746;10.488;2023-04-03T13:17:27;5.80;;;2.92;;
75054;SDS011;63636;44.746;10.488;2023-04-03T13:19:53;5.78;;;2.58;;
75054;SDS011;63636;44.746;10.488;2023-04-03T13:22:26;5.80;;;2.90;;
75054;SDS011;63636;44.746;10.488;2023-04-03T13:24:54;4.53;;;2.33;;
75054;SDS011;63636;44.746;10.488;2023-04-03T13:27:20;8.07;;;2.45;;
75054;SDS011;63636;44.746;10.488;2023-04-03T13:29:49;4.95;;;2.40;;
75054;SDS011;63636;44.746;10.488;2023-04-03T13:32:18;4.65;;;2.00;;
75054;SDS011;63636;44.746;10.488;2023-04-03T13:34:44;4.63;;;2.20;;
75054;SDS011;63636;44.746;10.488;2023-04-03T13:37:23;6.07;;;2.30;;
75054;SDS011;63636;44.746;10.488;2023-04-03T13:39:57;5.97;;;2.10;;
75054;SDS011;63636;44.746;10.488;2023-04-03T13:42:25;4.47;;;2.03;;
75054;SDS011;63636;44.746;10.488;2023-04-03T13:47:40;4.30;;;2.20;;
75054;SDS011;63636;44.746;10.488;2023-04-03T13:52:41;5.40;;;2.03;;
75054;SDS011;63636;44.746;10.488;2023-04-03T14:03:32;5.15;;;1.95;;
75054;SDS011;63636;44.746;10.488;2023-04-03T14:05:59;2.75;;;1.75;;
75054;SDS011;63636;44.746;10.488;2023-04-03T14:08:26;4.63;;;1.88;;
75054;SDS011;63636;44.746;10.488;2023-04-03T14:10:52;3.50;;;1.80;;
75054;SDS011;63636;44.746;10.488;2023-04-03T14:13:18;4.45;;;1.83;;
75054;SDS011;63636;44.746;10.488;2023-04-03T14:15:45;3.92;;;1.60;;
75054;SDS011;63636;44.746;10.488;2023-04-03T14:18:15;5.00;;;1.60;;
75054;SDS011;63636;44.746;10.488;2023-04-03T14:20:41;4.53;;;1.60;;
75054;SDS011;63636;44.746;10.488;2023-04-03T14:23:07;3.38;;;1.70;;
75054;SDS011;63636;44.746;10.488;2023-04-03T14:25:32;4.63;;;1.80;;
75054;SDS011;63636;44.746;10.488;2023-04-03T14:27:59;3.28;;;1.45;;
75054;SDS011;63636;44.746;10.488;2023-04-03T14:30:27;4.15;;;1.40;;
75054;SDS011;63636;44.746;10.488;2023-04-03T14:32:53;3.67;;;1.58;;
75054;SDS011;63636;44.746;10.488;2023-04-03T14:35:18;5.15;;;1.40;;
75054;SDS011;63636;44.746;10.488;2023-04-03T14:37:44;5.20;;;1.63;;
75054;SDS011;63636;44.746;10.488;2023-04-03T14:40:16;3.88;;;1.30;;
75054;SDS011;63636;44.746;10.488;2023-04-03T14:42:41;3.58;;;1.35;;
75054;SDS011;63636;44.746;10.488;2023-04-03T14:45:09;2.42;;;1.00;;
75054;SDS011;63636;44.746;10.488;2023-04-03T14:47:36;4.10;;;1.20;;
75054;SDS011;63636;44.746;10.488;2023-04-03T14:50:06;1.38;;;0.90;;
75054;SDS011;63636;44.746;10.488;2023-04-03T14:52:34;1.20;;;0.80;;
75054;SDS011;63636;44.746;10.488;2023-04-03T14:55:00;2.05;;;0.85;;
75054;SDS011;63636;44.746;10.488;2023-04-03T14:57:27;1.95;;;0.85;;
75054;SDS011;63636;44.746;10.488;2023-04-03T14:59:53;4.60;;;0.88;;
75054;SDS011;63636;44.746;10.488;2023-04-03T15:02:24;1.45;;;0.70;;
75054;SDS011;63636;44.746;10.488;2023-04-03T15:04:50;1.27;;;0.80;;
75054;SDS011;63636;44.746;10.488;2023-04-03T15:07:15;3.88;;;0.88;;
75054;SDS011;63636;44.746;10.488;2023-04-03T15:09:41;1.52;;;1.00;;
75054;SDS011;63636;44.746;10.488;2023-04-03T15:12:07;3.92;;;1.10;;
75054;SDS011;63636;44.746;10.488;2023-04-03T15:14:33;1.27;;;0.80;;
75054;SDS011;63636;44.746;10.488;2023-04-03T15:16:59;2.65;;;1.13;;
75054;SDS011;63636;44.746;10.488;2023-04-03T15:19:24;2.13;;;1.10;;
75054;SDS011;63636;44.746;10.488;2023-04-03T15:21:50;1.63;;;1.10;;
75054;SDS011;63636;44.746;10.488;2023-04-03T15:24:16;3.05;;;0.90;;
75054;SDS011;63636;44.746;10.488;2023-04-03T15:26:41;2.08;;;0.90;;
75054;SDS011;63636;44.746;10.488;2023-04-03T15:29:07;2.15;;;0.73;;
75054;SDS011;63636;44.746;10.488;2023-04-03T15:31:33;3.05;;;0.90;;
75054;SDS011;63636;44.746;10.488;2023-04-03T15:33:58;2.13;;;0.73;;
75054;SDS011;63636;44.746;10.488;2023-04-03T15:36:24;2.72;;;0.90;;
75054;SDS011;63636;44.746;10.488;2023-04-03T15:38:50;2.33;;;0.80;;
75054;SDS011;63636;44.746;10.488;2023-04-03T15:41:15;1.92;;;0.80;;
75054;SDS011;63636;44.746;10.488;2023-04-03T15:43:41;1.95;;;0.77;;
75054;SDS011;63636;44.746;10.488;2023-04-03T15:46:07;1.38;;;0.80;;
75054;SDS011;63636;44.746;10.488;2023-04-03T15:48:32;4.47;;;1.00;;
75054;SDS011;63636;44.746;10.488;2023-04-03T15:50:58;2.30;;;0.85;;
75054;SDS011;63636;44.746;10.488;2023-04-03T15:53:24;4.53;;;1.20;;
75054;SDS011;63636;44.746;10.488;2023-04-03T15:55:50;1.40;;;0.80;;
75054;SDS011;63636;44.746;10.488;2023-04-03T15:58:16;1.20;;;0.90;;
75054;SDS011;63636;44.746;10.488;2023-04-03T16:00:41;1.42;;;0.80;;
75054;SDS011;63636;44.746;10.488;2023-04-03T16:03:12;2.67;;;0.80;;
75054;SDS011;63636;44.746;10.488;2023-04-03T16:05:38;3.95;;;0.90;;
75054;SDS011;63636;44.746;10.488;2023-04-03T16:08:04;2.53;;;0.80;;
75054;SDS011;63636;44.746;10.488;2023-04-03T16:10:30;2.28;;;0.80;;
75054;SDS011;63636;44.746;10.488;2023-04-03T16:12:56;2.55;;;0.90;;
75054;SDS011;63636;44.746;10.488;2023-04-03T16:15:22;2.15;;;0.90;;
75054;SDS011;63636;44.746;10.488;2023-04-03T16:17:47;2.90;;;1.00;;
75054;SDS011;63636;44.746;10.488;2023-04-03T16:20:13;2.58;;;1.00;;
75054;SDS011;63636;44.746;10.488;2023-04-03T16:22:40;1.05;;;0.70;;
75054;SDS011;63636;44.746;10.488;2023-04-03T16:25:06;3.30;;;0.80;;
75054;SDS011;63636;44.746;10.488;2023-04-03T16:27:32;5.55;;;1.00;;
75054;SDS011;63636;44.746;10.488;2023-04-03T16:29:57;2.13;;;0.93;;
75054;SDS011;63636;44.746;10.488;2023-04-03T16:32:24;3.50;;;1.10;;